Italic G — IBYH — position and weather

sailwx.info

Track history (hours):
 
Tides and Currents Weather Stations Pressure Air Temp Water Temp Dewpoint Dewpoint Depression Visibility Wind Speed Wind Dir Waves Ship Positions

Italic G

Last reported at 2015-May-18 17:17 UTC. Time now 2015-May-22 11:38 UTC.
Position N 01°56' E 102°18'.

Length 229 m; draft 8 m.

Type: Cargo ship. MMSI: 247282300.

Date/timePositionNaut miles runAvg speedWind from/ knotsBaromVisibWave heightAir tempDewpointWater temp
2015-May-18 17:17N 01°56' E 102°18'912.3
2015-May-18 16:31N 01°52' E 102°27'1311.5
2015-May-18 15:21N 01°46' E 102°39'910.3
2015-May-18 14:28N 01°43' E 102°47'9 9.9
2015-May-18 13:33N 01°39' E 102°56'13 9.9
2015-May-18 12:13N 01°32' E 103°06'810.8
2015-May-18 11:30N 01°27' E 103°12'4310.8
2015-May-18 07:32N 01°13' E 103°53'8 8.0
2015-May-18 06:31N 01°17' E 103°59'0 0.1
2015-May-18 05:16N 01°17' E 103°59'0 0.0
2015-May-18 03:31N 01°17' E 103°59'0 0.1
2015-May-18 02:28N 01°17' E 103°59'0 0.0
2015-May-18 01:28N 01°17' E 103°59'0 0.1
2015-May-18 00:13N 01°17' E 103°60'0 0.2
2015-May-17 23:31N 01°17' E 103°60'0 0.0
2015-May-17 22:16N 01°17' E 103°60'0 0.0
2015-May-17 21:31N 01°17' E 103°60'0 0.0
2015-May-17 20:28N 01°17' E 103°60'0 0.0
2015-May-17 19:25N 01°17' E 103°60'0 0.0
2015-May-17 18:10N 01°17' E 103°60'0 0.0
2015-May-17 17:28N 01°17' E 103°60'0 0.0
2015-May-17 16:22N 01°17' E 103°60'0 0.3
2015-May-17 15:22N 01°17' E 103°59'0 0.0
2015-May-17 13:31N 01°17' E 103°59'0 0.0
2015-May-17 12:31N 01°17' E 103°59'0 0.0
2015-May-17 11:28N 01°17' E 103°59'0 0.0
2015-May-17 10:22N 01°17' E 103°59'0 0.0
2015-May-17 09:22N 01°17' E 103°59'1 0.9
2015-May-17 08:29N 01°16' E 103°59'6 6.0
2015-May-17 07:33N 01°17' E 104°05'1010.3
2015-May-17 06:33N 01°18' E 104°15'  
Track history (hours):
 
Tides and Currents Weather Stations Pressure Air Temp Water Temp Dewpoint Dewpoint Depression Visibility Wind Speed Wind Dir Waves Ship Positions

Italic G

Last reported at 2015-May-18 17:17 UTC. Time now 2015-May-22 11:38 UTC.
Position N 01°56' E 102°18'.

Length 229 m; draft 8 m.

Type: Cargo ship. MMSI: 247282300.

Date/timePositionNaut miles runAvg speedWind from/ knotsBaromVisibWave heightAir tempDewpointWater temp
2015-May-18 17:17N 01°56' E 102°18'912.3
2015-May-18 16:31N 01°52' E 102°27'1311.5
2015-May-18 15:21N 01°46' E 102°39'910.3
2015-May-18 14:28N 01°43' E 102°47'9 9.9
2015-May-18 13:33N 01°39' E 102°56'13 9.9
2015-May-18 12:13N 01°32' E 103°06'810.8
2015-May-18 11:30N 01°27' E 103°12'4310.8
2015-May-18 07:32N 01°13' E 103°53'8 8.0
2015-May-18 06:31N 01°17' E 103°59'0 0.1
2015-May-18 05:16N 01°17' E 103°59'0 0.0
2015-May-18 03:31N 01°17' E 103°59'0 0.1
2015-May-18 02:28N 01°17' E 103°59'0 0.0
2015-May-18 01:28N 01°17' E 103°59'0 0.1
2015-May-18 00:13N 01°17' E 103°60'0 0.2
2015-May-17 23:31N 01°17' E 103°60'0 0.0
2015-May-17 22:16N 01°17' E 103°60'0 0.0
2015-May-17 21:31N 01°17' E 103°60'0 0.0
2015-May-17 20:28N 01°17' E 103°60'0 0.0
2015-May-17 19:25N 01°17' E 103°60'0 0.0
2015-May-17 18:10N 01°17' E 103°60'0 0.0
2015-May-17 17:28N 01°17' E 103°60'0 0.0
2015-May-17 16:22N 01°17' E 103°60'0 0.3
2015-May-17 15:22N 01°17' E 103°59'0 0.0
2015-May-17 13:31N 01°17' E 103°59'0 0.0
2015-May-17 12:31N 01°17' E 103°59'0 0.0
2015-May-17 11:28N 01°17' E 103°59'0 0.0
2015-May-17 10:22N 01°17' E 103°59'0 0.0
2015-May-17 09:22N 01°17' E 103°59'1 0.9
2015-May-17 08:29N 01°16' E 103°59'6 6.0
2015-May-17 07:33N 01°17' E 104°05'1010.3
2015-May-17 06:33N 01°18' E 104°15'  

Dump ship's entire track history